createdAt,value
2018-04-12T08:43:57.290Z,23.57
2018-04-12T08:46:29.948Z,22.98
2018-04-12T08:49:01.182Z,21.77
2018-04-12T08:51:32.343Z,22.50
2018-04-12T08:54:04.699Z,22.23
2018-04-12T08:56:36.043Z,24.33
2018-04-12T08:59:07.655Z,21.87
2018-04-12T09:01:38.783Z,22.17
2018-04-12T09:04:09.893Z,23.40
2018-04-12T09:06:41.275Z,26.53
2018-04-12T09:09:12.662Z,32.53
2018-04-12T09:11:43.751Z,31.10
2018-04-12T09:14:15.229Z,34.53
2018-04-12T09:16:46.279Z,34.53
2018-04-12T09:19:17.353Z,32.97
2018-04-12T09:21:48.706Z,33.57
2018-04-12T09:24:19.738Z,32.77
2018-04-12T09:26:50.611Z,33.23
2018-04-12T09:29:24.345Z,33.23
2018-04-12T09:31:55.961Z,32.60
2018-04-12T09:34:27.930Z,32.73
2018-04-12T09:36:59.766Z,36.03
2018-04-12T09:39:31.414Z,33.57
2018-04-12T09:42:02.741Z,34.27
2018-04-12T09:44:33.970Z,34.77
2018-04-12T09:47:05.459Z,33.73
2018-04-12T09:49:37.549Z,32.50
2018-04-12T09:52:09.017Z,35.13
2018-04-12T09:54:40.010Z,33.13
2018-04-12T09:57:12.053Z,37.57
2018-04-12T09:59:43.565Z,33.73
2018-04-12T10:02:17.127Z,36.53
2018-04-12T10:05:07.491Z,36.73
2018-04-12T10:07:47.487Z,34.57
2018-04-12T10:10:21.738Z,35.93
2018-04-12T10:12:56.367Z,34.53
2018-04-12T10:15:33.234Z,35.77
2018-04-12T10:18:08.074Z,34.93
2018-04-12T10:20:42.085Z,35.10
2018-04-12T10:23:18.091Z,34.80
2018-04-12T10:25:52.536Z,34.13
2018-04-12T10:28:31.103Z,34.70
2018-04-12T10:31:05.158Z,34.93
2018-04-12T10:33:40.051Z,34.40
2018-04-12T10:36:14.292Z,35.37
2018-04-12T10:38:50.638Z,35.83
2018-04-12T10:41:24.831Z,34.73
2018-04-12T10:43:59.680Z,34.00
2018-04-12T10:46:35.027Z,33.83
2018-04-12T10:49:10.810Z,37.37
2018-04-12T10:51:45.461Z,35.80
2018-04-12T10:54:22.886Z,36.93
2018-04-12T10:56:58.400Z,36.03
2018-04-12T10:59:37.807Z,40.43
2018-04-12T11:02:12.263Z,40.30
2018-04-12T11:04:48.074Z,40.87
2018-04-12T11:07:23.699Z,39.77
2018-04-12T11:09:57.556Z,38.67
2018-04-12T11:12:32.942Z,38.63
2018-04-12T11:15:08.668Z,37.80
2018-04-12T11:17:43.818Z,37.00
2018-04-12T11:20:19.559Z,35.63
2018-04-12T11:22:55.340Z,35.40
2018-04-12T11:25:30.571Z,35.93
2018-04-12T11:28:04.931Z,35.17
2018-04-12T11:30:39.861Z,35.67
2018-04-12T11:33:14.323Z,36.70
2018-04-12T11:35:51.533Z,38.93
2018-04-12T11:38:26.898Z,38.57
2018-04-12T11:41:02.098Z,38.60
2018-04-12T11:43:36.773Z,39.23
2018-04-12T11:46:10.798Z,38.10
2018-04-12T11:48:48.200Z,37.73
2018-04-12T11:51:23.625Z,35.73
2018-04-12T11:53:58.465Z,36.30
2018-04-12T11:56:33.047Z,37.10
2018-04-12T11:59:08.801Z,35.60
2018-04-12T12:01:44.010Z,35.70
2018-04-12T12:04:18.501Z,36.10
2018-04-12T12:06:52.210Z,35.30
2018-04-12T12:09:26.011Z,33.87
2018-04-12T12:12:00.566Z,36.00
2018-04-12T12:14:35.431Z,34.93
2018-04-12T12:17:08.977Z,35.03
2018-04-12T12:19:42.572Z,34.77
2018-04-12T12:22:15.822Z,34.20
2018-04-12T12:24:48.897Z,36.60
2018-04-12T12:27:22.462Z,38.60
2018-04-12T12:29:56.824Z,37.20
2018-04-12T12:32:32.387Z,37.70
2018-04-12T12:35:05.554Z,36.60
2018-04-12T12:37:39.841Z,35.40
2018-04-12T12:40:13.139Z,35.17
2018-04-12T12:42:47.295Z,34.90
2018-04-12T12:45:21.114Z,33.57
2018-04-12T12:47:56.340Z,32.87
2018-04-12T12:50:30.078Z,33.63
2018-04-12T12:53:04.341Z,31.87
2018-04-12T12:55:40.343Z,32.13
2018-04-12T12:58:15.519Z,32.03
2018-04-12T13:00:48.883Z,32.27
2018-04-12T13:03:24.397Z,35.07
2018-04-12T13:05:59.873Z,34.07
2018-04-12T13:08:37.152Z,33.97
2018-04-12T13:11:11.533Z,33.70
2018-04-12T13:13:45.550Z,30.63
2018-04-12T13:16:20.337Z,31.10
2018-04-12T13:18:54.751Z,30.93
2018-04-12T13:21:29.625Z,29.53
2018-04-12T13:24:04.552Z,28.90
2018-04-12T13:26:39.347Z,29.00
2018-04-12T13:29:15.333Z,26.60
2018-04-12T13:31:49.569Z,27.03
2018-04-12T13:34:23.312Z,26.70
2018-04-12T13:36:57.775Z,25.17
2018-04-12T13:39:32.622Z,26.03
2018-04-12T13:42:07.075Z,24.53
2018-04-12T13:44:42.395Z,25.07
2018-04-12T13:47:17.583Z,25.40
2018-04-12T13:49:54.420Z,24.70
2018-04-12T13:52:32.295Z,26.43
2018-04-12T13:55:06.327Z,24.30
2018-04-12T13:57:42.460Z,23.77
2018-04-12T14:00:17.290Z,23.73
2018-04-12T14:02:52.589Z,24.20
2018-04-12T14:05:27.045Z,24.07
2018-04-12T14:08:02.461Z,23.90
2018-04-12T14:10:38.244Z,23.93
2018-04-12T14:13:14.309Z,24.50
2018-04-12T14:15:49.314Z,23.33
2018-04-12T14:18:25.071Z,23.50
2018-04-12T14:20:59.890Z,22.73
2018-04-12T14:23:34.194Z,22.87
2018-04-12T14:26:10.121Z,24.30
2018-04-12T14:28:45.774Z,23.73
2018-04-12T14:31:21.507Z,24.43
2018-04-12T14:33:58.973Z,24.03
2018-04-12T14:36:33.543Z,23.33
2018-04-12T14:39:08.455Z,23.13
2018-04-12T14:41:43.626Z,23.67
2018-04-12T14:44:19.658Z,24.43
2018-04-12T14:46:54.179Z,23.20
2018-04-12T14:49:30.794Z,23.27
2018-04-12T14:52:05.374Z,22.47
2018-04-12T14:54:41.325Z,23.10
2018-04-12T14:57:18.938Z,23.07
2018-04-12T14:59:56.502Z,22.57
2018-04-12T15:02:32.257Z,23.30
2018-04-12T15:05:07.110Z,22.87
2018-04-12T15:07:41.395Z,22.43
2018-04-12T15:10:15.629Z,22.10
2018-04-12T15:12:50.315Z,21.73
2018-04-12T15:15:26.286Z,22.07
2018-04-12T15:18:01.250Z,21.33
2018-04-12T15:20:35.958Z,20.83
2018-04-12T15:23:11.001Z,21.37
2018-04-12T15:25:45.704Z,20.00
2018-04-12T15:28:20.372Z,20.13
2018-04-12T15:30:56.884Z,19.77
2018-04-12T15:33:33.164Z,18.53
2018-04-12T15:36:07.320Z,17.67
2018-04-12T15:38:43.031Z,17.10
2018-04-12T15:41:17.638Z,16.63
2018-04-12T15:43:52.535Z,18.33
2018-04-12T15:46:29.577Z,16.57
2018-04-12T15:49:05.141Z,16.43
2018-04-12T15:51:39.257Z,16.13
2018-04-12T15:54:14.065Z,15.40
2018-04-12T15:56:50.907Z,15.93
2018-04-12T15:59:25.224Z,14.07
2018-04-12T16:02:02.122Z,15.13
2018-04-12T16:04:37.215Z,14.83
2018-04-12T16:07:12.485Z,15.23
2018-04-12T16:09:47.021Z,14.03
2018-04-12T16:12:23.511Z,15.03
2018-04-12T16:14:58.296Z,14.73
2018-04-12T16:17:32.783Z,13.87
2018-04-12T16:20:06.974Z,14.30
2018-04-12T16:22:41.862Z,14.37
2018-04-12T16:25:18.720Z,13.60
2018-04-12T16:27:54.271Z,14.30
2018-04-12T16:30:28.559Z,14.23
2018-04-12T16:33:03.261Z,14.93
2018-04-12T16:35:37.670Z,14.20
2018-04-12T16:38:12.298Z,13.70
2018-04-12T16:40:46.653Z,13.03
2018-04-12T16:43:24.152Z,12.37
2018-04-12T16:46:00.062Z,14.40
2018-04-12T16:48:34.451Z,13.17
2018-04-12T16:51:08.761Z,12.00
2018-04-12T16:53:43.870Z,14.23
2018-04-12T16:56:18.096Z,12.33
2018-04-12T16:58:53.283Z,13.07
2018-04-12T17:01:28.778Z,13.20
2018-04-12T17:04:02.498Z,12.63
2018-04-12T17:06:37.281Z,12.50
2018-04-12T17:09:12.688Z,13.40
2018-04-12T17:11:47.391Z,13.00
2018-04-12T17:14:23.135Z,13.33
2018-04-12T17:16:58.054Z,12.50
2018-04-12T17:19:33.075Z,12.00
2018-04-12T17:22:06.777Z,13.00
2018-04-12T17:24:41.509Z,11.67
2018-04-12T17:27:15.134Z,11.77
2018-04-12T17:29:50.485Z,12.00
2018-04-12T17:32:24.369Z,12.60
2018-04-12T17:34:58.147Z,11.87
2018-04-12T17:37:32.278Z,12.03
2018-04-12T17:40:05.851Z,11.97
2018-04-12T17:42:39.623Z,11.97
2018-04-12T17:45:13.492Z,12.27
2018-04-12T17:47:48.349Z,10.90
2018-04-12T17:50:22.302Z,11.33
2018-04-12T17:52:55.638Z,11.73
2018-04-12T17:55:30.326Z,11.20
2018-04-12T17:58:03.866Z,11.00
2018-04-12T18:00:37.692Z,11.00
2018-04-12T18:03:11.019Z,11.40
2018-04-12T18:05:46.308Z,10.60
2018-04-12T18:08:19.971Z,10.33
2018-04-12T18:10:53.668Z,10.97
2018-04-12T18:13:27.681Z,10.63
2018-04-12T18:16:00.947Z,10.53
2018-04-12T18:18:33.581Z,10.17
2018-04-12T18:21:06.244Z,10.60
2018-04-12T18:23:38.849Z,11.00
2018-04-12T18:26:11.549Z,11.07
2018-04-12T18:28:42.108Z,10.27
2018-04-12T18:31:14.387Z,10.50
2018-04-12T18:33:47.305Z,11.40
2018-04-12T18:36:19.889Z,11.77
2018-04-12T18:38:52.077Z,11.00
2018-04-12T18:41:25.328Z,9.97
2018-04-12T18:43:56.858Z,10.53
2018-04-12T18:46:29.986Z,10.10
2018-04-12T18:49:02.657Z,11.20
2018-04-12T18:51:35.179Z,11.10
2018-04-12T18:54:07.851Z,10.73
2018-04-12T18:56:40.057Z,10.27
2018-04-12T18:59:14.116Z,10.27
2018-04-12T19:01:47.509Z,10.43
2018-04-12T19:04:20.428Z,10.93
2018-04-12T19:06:54.108Z,9.73
2018-04-12T19:09:27.392Z,11.10
2018-04-12T19:12:00.477Z,10.73
2018-04-12T19:14:32.960Z,10.10
2018-04-12T19:17:05.123Z,10.53
2018-04-12T19:19:37.686Z,11.37
2018-04-12T19:22:09.907Z,11.43
2018-04-12T19:24:41.364Z,10.07
2018-04-12T19:27:14.906Z,10.80
2018-04-12T19:29:47.133Z,10.20
2018-04-12T19:32:21.029Z,10.60
2018-04-12T19:34:53.823Z,9.87
2018-04-12T19:37:28.149Z,11.27
2018-04-12T19:40:01.458Z,10.50
2018-04-12T19:42:34.551Z,11.63
2018-04-12T19:45:07.954Z,9.93
2018-04-12T19:47:41.352Z,10.60
2018-04-12T19:50:15.134Z,11.83
2018-04-12T19:52:45.765Z,10.37
2018-04-12T19:55:18.330Z,11.73
2018-04-12T19:57:50.159Z,10.93
2018-04-12T20:00:21.934Z,10.80
2018-04-12T20:02:54.848Z,11.27
2018-04-12T20:05:26.864Z,10.90
2018-04-12T20:07:59.815Z,11.30
2018-04-12T20:10:33.158Z,10.73
2018-04-12T20:13:06.497Z,10.73
2018-04-12T20:15:39.738Z,10.17
2018-04-12T20:18:12.054Z,11.13
2018-04-12T20:20:43.857Z,11.30
2018-04-12T20:23:15.764Z,10.00
2018-04-12T20:25:47.886Z,10.33
2018-04-12T20:28:19.132Z,11.03
2018-04-12T20:30:50.693Z,10.97
2018-04-12T20:33:22.203Z,10.27
2018-04-12T20:35:53.877Z,11.70
2018-04-12T20:38:25.130Z,10.53
2018-04-12T20:40:56.174Z,10.97
2018-04-12T20:43:27.041Z,11.87
2018-04-12T20:45:59.079Z,10.03
2018-04-12T20:48:30.233Z,10.60
2018-04-12T20:51:01.571Z,10.87
2018-04-12T20:53:32.490Z,10.87
2018-04-12T20:56:03.921Z,11.37
2018-04-12T20:58:35.063Z,11.20
2018-04-12T21:01:06.126Z,11.50
2018-04-12T21:03:37.245Z,11.47
2018-04-12T21:06:08.601Z,10.87
2018-04-12T21:08:39.373Z,11.23
2018-04-12T21:11:10.190Z,10.80
2018-04-12T21:13:41.303Z,10.57
2018-04-12T21:16:12.632Z,10.70
2018-04-12T21:18:45.259Z,11.00
2018-04-12T21:21:15.996Z,10.70
2018-04-12T21:23:46.894Z,11.70
2018-04-12T21:26:18.137Z,11.77
2018-04-12T21:28:49.985Z,10.13
2018-04-12T21:31:20.901Z,11.73
2018-04-12T21:33:52.060Z,11.27
2018-04-12T21:36:23.218Z,12.27
2018-04-12T21:38:54.264Z,10.70
2018-04-12T21:41:26.317Z,10.80
2018-04-12T21:43:57.678Z,11.30
2018-04-12T21:46:29.158Z,10.80
2018-04-12T21:48:59.985Z,10.97
2018-04-12T21:51:31.357Z,10.20
2018-04-12T21:54:01.950Z,11.30
2018-04-12T21:56:33.857Z,10.87
2018-04-12T21:59:05.293Z,11.17
2018-04-12T22:01:36.538Z,10.27
2018-04-12T22:04:07.448Z,10.97
2018-04-12T22:06:38.739Z,10.93
2018-04-12T22:09:09.566Z,10.77
2018-04-12T22:11:40.413Z,10.30
2018-04-12T22:14:11.640Z,10.77
2018-04-12T22:16:43.773Z,10.90
2018-04-12T22:19:14.996Z,10.97
2018-04-12T22:21:46.230Z,10.70
2018-04-12T22:24:17.254Z,12.50
2018-04-12T22:26:48.549Z,11.90
2018-04-12T22:29:19.746Z,11.77
2018-04-12T22:31:50.783Z,11.33
2018-04-12T22:34:21.644Z,11.20
2018-04-12T22:36:52.631Z,10.83
2018-04-12T22:39:23.667Z,10.37
2018-04-12T22:41:54.961Z,10.73
2018-04-12T22:44:26.115Z,12.17
2018-04-12T22:46:57.141Z,10.73
2018-04-12T22:49:28.617Z,11.20
2018-04-12T22:51:59.721Z,11.03
2018-04-12T22:54:31.573Z,10.30
2018-04-12T22:57:02.741Z,11.83
2018-04-12T22:59:33.712Z,10.10
2018-04-12T23:02:05.385Z,10.50
2018-04-12T23:04:36.599Z,13.27
2018-04-12T23:07:07.840Z,10.97
2018-04-12T23:09:38.594Z,10.60
2018-04-12T23:12:09.737Z,11.10
2018-04-12T23:14:40.665Z,10.60
2018-04-12T23:17:11.838Z,10.73
2018-04-12T23:19:42.877Z,10.70
2018-04-12T23:22:14.095Z,11.00
2018-04-12T23:24:44.873Z,10.97
2018-04-12T23:27:15.959Z,11.13
2018-04-12T23:29:47.069Z,10.33
2018-04-12T23:32:18.133Z,10.90
2018-04-12T23:34:48.925Z,10.03
2018-04-12T23:37:17.810Z,10.97
2018-04-12T23:39:49.098Z,10.67
2018-04-12T23:42:19.763Z,10.30
2018-04-12T23:44:50.918Z,10.27
2018-04-12T23:47:21.629Z,11.27
2018-04-12T23:49:52.936Z,10.27
2018-04-12T23:52:23.648Z,10.63
2018-04-12T23:54:54.770Z,10.47
2018-04-12T23:57:26.305Z,9.97
2018-04-12T23:59:58.128Z,10.03
